Kingsley Lake, Florida
Current Conditions -  °F | °C
As of 1:35 AM on Wednesday 26 Nov 2014 (Local Time) from K42J Reporting Station
Overcast Overcast  
Wind Chill: 59°   Ceiling: 200
Heat Index: 59°   Visibility: 1.2mi
Dew Point: 59°   Wind: 10mph
Humidity: 100%   Direction: 330°NNW
Pressure: 29.87"   Gusts: NA
Location:  29.9637°N, 82.0893°W
Report Text: K42J 260635Z AUTO 33009KT 1 1/4SM OVC002 15/15 A2987 RMK AO1 TSNO
Loading
Personal Weather Stations






























Interactive Weather Map New forecast layout! Learn more

10-Day Weather Forecast

Advertisements
Track Severe Weather on mobile